sensor_id;sensor_type;location;lat;lon;timestamp;P1;durP1;ratioP1;P2;durP2;ratioP2
18146;SDS011;9199;48.832;9.182;2023-07-13T00:00:05;3.60;;;1.05;;
18146;SDS011;9199;48.832;9.182;2023-07-13T00:02:34;4.03;;;1.10;;
18146;SDS011;9199;48.832;9.182;2023-07-13T00:05:01;4.30;;;1.00;;
18146;SDS011;9199;48.832;9.182;2023-07-13T00:07:28;4.20;;;1.00;;
18146;SDS011;9199;48.832;9.182;2023-07-13T00:09:56;4.10;;;1.00;;
18146;SDS011;9199;48.832;9.182;2023-07-13T00:12:25;3.15;;;1.10;;
18146;SDS011;9199;48.832;9.182;2023-07-13T00:14:54;5.18;;;1.15;;
18146;SDS011;9199;48.832;9.182;2023-07-13T00:17:23;4.27;;;1.17;;
18146;SDS011;9199;48.832;9.182;2023-07-13T00:19:50;4.50;;;1.00;;
18146;SDS011;9199;48.832;9.182;2023-07-13T00:22:17;3.42;;;1.10;;
18146;SDS011;9199;48.832;9.182;2023-07-13T00:24:44;5.47;;;1.10;;
18146;SDS011;9199;48.832;9.182;2023-07-13T00:27:11;4.72;;;1.08;;
18146;SDS011;9199;48.832;9.182;2023-07-13T00:29:38;3.83;;;0.97;;
18146;SDS011;9199;48.832;9.182;2023-07-13T00:32:06;4.70;;;0.95;;
18146;SDS011;9199;48.832;9.182;2023-07-13T00:34:35;5.00;;;1.20;;
18146;SDS011;9199;48.832;9.182;2023-07-13T00:37:03;3.33;;;1.00;;
18146;SDS011;9199;48.832;9.182;2023-07-13T00:39:31;5.03;;;1.10;;
18146;SDS011;9199;48.832;9.182;2023-07-13T00:41:58;3.40;;;1.10;;
18146;SDS011;9199;48.832;9.182;2023-07-13T00:44:25;4.95;;;1.20;;
18146;SDS011;9199;48.832;9.182;2023-07-13T00:46:52;5.43;;;1.17;;
18146;SDS011;9199;48.832;9.182;2023-07-13T00:49:21;4.85;;;1.10;;
18146;SDS011;9199;48.832;9.182;2023-07-13T00:51:51;4.53;;;1.20;;
18146;SDS011;9199;48.832;9.182;2023-07-13T00:54:21;3.27;;;1.00;;
18146;SDS011;9199;48.832;9.182;2023-07-13T00:56:51;6.35;;;1.20;;
18146;SDS011;9199;48.832;9.182;2023-07-13T00:59:20;4.03;;;1.10;;
18146;SDS011;9199;48.832;9.182;2023-07-13T01:01:48;4.82;;;1.20;;
18146;SDS011;9199;48.832;9.182;2023-07-13T01:04:16;3.50;;;1.02;;
18146;SDS011;9199;48.832;9.182;2023-07-13T01:06:43;4.30;;;1.30;;
18146;SDS011;9199;48.832;9.182;2023-07-13T01:09:11;3.95;;;1.25;;
18146;SDS011;9199;48.832;9.182;2023-07-13T01:11:39;4.07;;;1.10;;
18146;SDS011;9199;48.832;9.182;2023-07-13T01:14:06;3.80;;;1.00;;
18146;SDS011;9199;48.832;9.182;2023-07-13T01:16:34;3.40;;;1.20;;
18146;SDS011;9199;48.832;9.182;2023-07-13T01:19:02;8.40;;;1.30;;
18146;SDS011;9199;48.832;9.182;2023-07-13T01:21:37;3.20;;;1.13;;
18146;SDS011;9199;48.832;9.182;2023-07-13T01:24:08;5.43;;;1.20;;
18146;SDS011;9199;48.832;9.182;2023-07-13T01:26:34;5.50;;;1.30;;
18146;SDS011;9199;48.832;9.182;2023-07-13T01:29:01;5.93;;;1.30;;
18146;SDS011;9199;48.832;9.182;2023-07-13T01:31:28;8.40;;;1.20;;
18146;SDS011;9199;48.832;9.182;2023-07-13T01:33:55;3.25;;;1.10;;
18146;SDS011;9199;48.832;9.182;2023-07-13T01:36:23;4.25;;;1.08;;
18146;SDS011;9199;48.832;9.182;2023-07-13T01:38:51;3.97;;;1.40;;
18146;SDS011;9199;48.832;9.182;2023-07-13T01:41:17;3.20;;;1.10;;
18146;SDS011;9199;48.832;9.182;2023-07-13T01:43:44;4.73;;;1.10;;
18146;SDS011;9199;48.832;9.182;2023-07-13T01:46:12;4.53;;;1.15;;
18146;SDS011;9199;48.832;9.182;2023-07-13T01:48:39;5.00;;;1.20;;
18146;SDS011;9199;48.832;9.182;2023-07-13T01:51:05;4.78;;;1.30;;
18146;SDS011;9199;48.832;9.182;2023-07-13T01:53:32;3.30;;;1.17;;
18146;SDS011;9199;48.832;9.182;2023-07-13T01:56:00;2.87;;;1.10;;
18146;SDS011;9199;48.832;9.182;2023-07-13T01:58:27;5.72;;;1.13;;
18146;SDS011;9199;48.832;9.182;2023-07-13T02:00:54;4.30;;;1.10;;
18146;SDS011;9199;48.832;9.182;2023-07-13T02:03:20;3.85;;;1.20;;
18146;SDS011;9199;48.832;9.182;2023-07-13T02:05:47;3.80;;;1.20;;
18146;SDS011;9199;48.832;9.182;2023-07-13T02:08:14;4.50;;;1.10;;
18146;SDS011;9199;48.832;9.182;2023-07-13T02:10:40;4.22;;;1.10;;
18146;SDS011;9199;48.832;9.182;2023-07-13T02:13:08;4.53;;;1.30;;
18146;SDS011;9199;48.832;9.182;2023-07-13T02:15:37;4.15;;;1.30;;
18146;SDS011;9199;48.832;9.182;2023-07-13T02:18:05;5.18;;;1.20;;
18146;SDS011;9199;48.832;9.182;2023-07-13T02:20:32;5.00;;;1.30;;
18146;SDS011;9199;48.832;9.182;2023-07-13T02:22:59;4.57;;;1.10;;
18146;SDS011;9199;48.832;9.182;2023-07-13T02:25:26;4.32;;;1.30;;
18146;SDS011;9199;48.832;9.182;2023-07-13T02:27:52;4.40;;;1.20;;
18146;SDS011;9199;48.832;9.182;2023-07-13T02:30:20;4.40;;;1.20;;
18146;SDS011;9199;48.832;9.182;2023-07-13T02:32:49;6.67;;;1.37;;
18146;SDS011;9199;48.832;9.182;2023-07-13T02:35:16;5.15;;;1.40;;
18146;SDS011;9199;48.832;9.182;2023-07-13T02:37:43;3.92;;;1.40;;
18146;SDS011;9199;48.832;9.182;2023-07-13T02:40:10;3.97;;;1.35;;
18146;SDS011;9199;48.832;9.182;2023-07-13T02:42:37;5.40;;;1.40;;
18146;SDS011;9199;48.832;9.182;2023-07-13T02:45:04;4.73;;;1.27;;
18146;SDS011;9199;48.832;9.182;2023-07-13T02:47:33;5.50;;;1.40;;
18146;SDS011;9199;48.832;9.182;2023-07-13T02:50:00;5.10;;;1.30;;
18146;SDS011;9199;48.832;9.182;2023-07-13T02:52:27;5.25;;;1.38;;
18146;SDS011;9199;48.832;9.182;2023-07-13T02:54:53;4.72;;;1.30;;
18146;SDS011;9199;48.832;9.182;2023-07-13T02:57:20;6.63;;;1.30;;
18146;SDS011;9199;48.832;9.182;2023-07-13T02:59:47;3.42;;;1.27;;
18146;SDS011;9199;48.832;9.182;2023-07-13T03:02:17;5.32;;;1.80;;
18146;SDS011;9199;48.832;9.182;2023-07-13T03:04:45;4.25;;;1.58;;
18146;SDS011;9199;48.832;9.182;2023-07-13T03:07:12;4.43;;;1.30;;
18146;SDS011;9199;48.832;9.182;2023-07-13T03:09:40;3.77;;;1.40;;
18146;SDS011;9199;48.832;9.182;2023-07-13T03:12:07;4.88;;;1.40;;
18146;SDS011;9199;48.832;9.182;2023-07-13T03:14:34;4.03;;;1.38;;
18146;SDS011;9199;48.832;9.182;2023-07-13T03:17:01;7.70;;;1.60;;
18146;SDS011;9199;48.832;9.182;2023-07-13T03:19:28;4.32;;;1.75;;
18146;SDS011;9199;48.832;9.182;2023-07-13T03:21:56;3.73;;;1.47;;
18146;SDS011;9199;48.832;9.182;2023-07-13T03:24:22;4.15;;;1.60;;
18146;SDS011;9199;48.832;9.182;2023-07-13T03:26:51;3.70;;;1.50;;
18146;SDS011;9199;48.832;9.182;2023-07-13T03:29:17;5.40;;;1.60;;
18146;SDS011;9199;48.832;9.182;2023-07-13T03:31:44;4.03;;;1.40;;
18146;SDS011;9199;48.832;9.182;2023-07-13T03:34:11;3.87;;;1.50;;
18146;SDS011;9199;48.832;9.182;2023-07-13T03:36:37;7.47;;;1.80;;
18146;SDS011;9199;48.832;9.182;2023-07-13T03:39:06;4.10;;;1.50;;
18146;SDS011;9199;48.832;9.182;2023-07-13T03:41:33;6.30;;;1.65;;
18146;SDS011;9199;48.832;9.182;2023-07-13T03:44:00;3.78;;;1.60;;
18146;SDS011;9199;48.832;9.182;2023-07-13T03:46:26;4.40;;;1.50;;
18146;SDS011;9199;48.832;9.182;2023-07-13T03:48:54;3.92;;;1.38;;
18146;SDS011;9199;48.832;9.182;2023-07-13T03:51:20;11.32;;;4.30;;
18146;SDS011;9199;48.832;9.182;2023-07-13T03:53:47;31.45;;;16.35;;
18146;SDS011;9199;48.832;9.182;2023-07-13T03:56:16;36.78;;;17.70;;
18146;SDS011;9199;48.832;9.182;2023-07-13T03:58:44;35.17;;;15.50;;
18146;SDS011;9199;48.832;9.182;2023-07-13T04:01:12;34.47;;;15.75;;
18146;SDS011;9199;48.832;9.182;2023-07-13T04:03:41;72.13;;;28.50;;
18146;SDS011;9199;48.832;9.182;2023-07-13T04:06:11;98.93;;;37.67;;
18146;SDS011;9199;48.832;9.182;2023-07-13T04:08:45;55.65;;;22.10;;
18146;SDS011;9199;48.832;9.182;2023-07-13T04:11:14;26.83;;;10.40;;
18146;SDS011;9199;48.832;9.182;2023-07-13T04:13:42;11.57;;;4.90;;
18146;SDS011;9199;48.832;9.182;2023-07-13T04:16:08;9.45;;;3.60;;
18146;SDS011;9199;48.832;9.182;2023-07-13T04:18:35;8.48;;;3.33;;
18146;SDS011;9199;48.832;9.182;2023-07-13T04:21:02;13.40;;;5.03;;
18146;SDS011;9199;48.832;9.182;2023-07-13T04:23:29;7.87;;;3.40;;
18146;SDS011;9199;48.832;9.182;2023-07-13T04:25:56;7.45;;;2.55;;
18146;SDS011;9199;48.832;9.182;2023-07-13T04:28:24;7.97;;;2.10;;
18146;SDS011;9199;48.832;9.182;2023-07-13T04:30:52;5.63;;;1.80;;
18146;SDS011;9199;48.832;9.182;2023-07-13T04:33:19;7.88;;;1.70;;
18146;SDS011;9199;48.832;9.182;2023-07-13T04:35:47;6.17;;;1.77;;
18146;SDS011;9199;48.832;9.182;2023-07-13T04:38:14;5.15;;;1.38;;
18146;SDS011;9199;48.832;9.182;2023-07-13T04:40:42;6.55;;;1.50;;
18146;SDS011;9199;48.832;9.182;2023-07-13T04:43:10;5.57;;;1.42;;
18146;SDS011;9199;48.832;9.182;2023-07-13T04:45:44;5.35;;;1.70;;
18146;SDS011;9199;48.832;9.182;2023-07-13T04:48:10;5.00;;;1.40;;
18146;SDS011;9199;48.832;9.182;2023-07-13T04:50:37;4.55;;;1.40;;
18146;SDS011;9199;48.832;9.182;2023-07-13T04:53:04;5.15;;;1.65;;
18146;SDS011;9199;48.832;9.182;2023-07-13T04:55:31;4.57;;;1.40;;
18146;SDS011;9199;48.832;9.182;2023-07-13T04:57:58;6.38;;;1.65;;
18146;SDS011;9199;48.832;9.182;2023-07-13T05:00:25;5.03;;;1.40;;
18146;SDS011;9199;48.832;9.182;2023-07-13T05:02:55;6.35;;;1.40;;
18146;SDS011;9199;48.832;9.182;2023-07-13T05:05:23;4.75;;;1.38;;
18146;SDS011;9199;48.832;9.182;2023-07-13T05:07:51;5.47;;;1.50;;
18146;SDS011;9199;48.832;9.182;2023-07-13T05:10:18;7.70;;;1.60;;
18146;SDS011;9199;48.832;9.182;2023-07-13T05:12:45;5.33;;;1.50;;
18146;SDS011;9199;48.832;9.182;2023-07-13T05:15:12;5.28;;;1.42;;
18146;SDS011;9199;48.832;9.182;2023-07-13T05:17:40;7.47;;;1.48;;
18146;SDS011;9199;48.832;9.182;2023-07-13T05:20:08;5.22;;;1.50;;
18146;SDS011;9199;48.832;9.182;2023-07-13T05:22:35;5.68;;;1.50;;
18146;SDS011;9199;48.832;9.182;2023-07-13T05:25:04;5.93;;;1.47;;
18146;SDS011;9199;48.832;9.182;2023-07-13T05:27:32;5.43;;;1.40;;
18146;SDS011;9199;48.832;9.182;2023-07-13T05:29:58;4.30;;;1.38;;
18146;SDS011;9199;48.832;9.182;2023-07-13T05:32:25;7.30;;;1.70;;
18146;SDS011;9199;48.832;9.182;2023-07-13T05:34:52;4.72;;;1.30;;
18146;SDS011;9199;48.832;9.182;2023-07-13T05:37:21;3.70;;;1.20;;
18146;SDS011;9199;48.832;9.182;2023-07-13T05:39:47;5.90;;;1.50;;
18146;SDS011;9199;48.832;9.182;2023-07-13T05:42:14;5.30;;;1.58;;
18146;SDS011;9199;48.832;9.182;2023-07-13T05:44:41;5.82;;;1.52;;
18146;SDS011;9199;48.832;9.182;2023-07-13T05:47:08;4.20;;;1.48;;
18146;SDS011;9199;48.832;9.182;2023-07-13T05:49:35;4.87;;;1.47;;
18146;SDS011;9199;48.832;9.182;2023-07-13T05:52:02;4.50;;;1.55;;
18146;SDS011;9199;48.832;9.182;2023-07-13T05:54:30;5.68;;;1.70;;
18146;SDS011;9199;48.832;9.182;2023-07-13T05:56:57;5.00;;;1.77;;
18146;SDS011;9199;48.832;9.182;2023-07-13T05:59:23;5.68;;;1.40;;
18146;SDS011;9199;48.832;9.182;2023-07-13T06:01:50;4.53;;;1.83;;
18146;SDS011;9199;48.832;9.182;2023-07-13T06:04:18;5.45;;;1.40;;
18146;SDS011;9199;48.832;9.182;2023-07-13T06:06:45;3.65;;;1.50;;
18146;SDS011;9199;48.832;9.182;2023-07-13T06:09:11;5.35;;;1.48;;
18146;SDS011;9199;48.832;9.182;2023-07-13T06:11:39;4.18;;;1.58;;
18146;SDS011;9199;48.832;9.182;2023-07-13T06:14:06;6.13;;;1.70;;
18146;SDS011;9199;48.832;9.182;2023-07-13T06:16:33;4.55;;;1.73;;
18146;SDS011;9199;48.832;9.182;2023-07-13T06:19:00;4.05;;;1.48;;
18146;SDS011;9199;48.832;9.182;2023-07-13T06:21:27;9.02;;;1.70;;
18146;SDS011;9199;48.832;9.182;2023-07-13T06:23:54;4.07;;;1.63;;
18146;SDS011;9199;48.832;9.182;2023-07-13T06:26:20;5.27;;;1.60;;
18146;SDS011;9199;48.832;9.182;2023-07-13T06:28:49;4.53;;;1.45;;
18146;SDS011;9199;48.832;9.182;2023-07-13T06:31:15;6.43;;;1.45;;
18146;SDS011;9199;48.832;9.182;2023-07-13T06:33:42;3.97;;;1.30;;
18146;SDS011;9199;48.832;9.182;2023-07-13T06:36:09;6.05;;;1.73;;
18146;SDS011;9199;48.832;9.182;2023-07-13T06:38:37;5.07;;;1.40;;
18146;SDS011;9199;48.832;9.182;2023-07-13T06:41:04;4.13;;;1.33;;
18146;SDS011;9199;48.832;9.182;2023-07-13T06:43:31;4.10;;;1.58;;
18146;SDS011;9199;48.832;9.182;2023-07-13T06:45:59;4.85;;;1.70;;
18146;SDS011;9199;48.832;9.182;2023-07-13T06:48:26;7.15;;;1.67;;
18146;SDS011;9199;48.832;9.182;2023-07-13T06:50:53;6.10;;;1.50;;
18146;SDS011;9199;48.832;9.182;2023-07-13T06:53:20;5.00;;;1.50;;
18146;SDS011;9199;48.832;9.182;2023-07-13T06:55:47;3.60;;;1.30;;
18146;SDS011;9199;48.832;9.182;2023-07-13T06:58:14;5.38;;;1.42;;
18146;SDS011;9199;48.832;9.182;2023-07-13T07:00:42;12.43;;;1.90;;
18146;SDS011;9199;48.832;9.182;2023-07-13T07:03:10;4.33;;;1.20;;
18146;SDS011;9199;48.832;9.182;2023-07-13T07:05:37;4.38;;;1.30;;
18146;SDS011;9199;48.832;9.182;2023-07-13T07:08:04;4.38;;;1.40;;
18146;SDS011;9199;48.832;9.182;2023-07-13T07:10:31;5.22;;;1.20;;
18146;SDS011;9199;48.832;9.182;2023-07-13T07:12:58;5.32;;;1.33;;
18146;SDS011;9199;48.832;9.182;2023-07-13T07:15:25;4.33;;;1.30;;
18146;SDS011;9199;48.832;9.182;2023-07-13T07:17:51;5.25;;;1.23;;
18146;SDS011;9199;48.832;9.182;2023-07-13T07:20:20;4.28;;;1.30;;
18146;SDS011;9199;48.832;9.182;2023-07-13T07:22:47;5.13;;;1.20;;
18146;SDS011;9199;48.832;9.182;2023-07-13T07:25:14;5.75;;;1.30;;
18146;SDS011;9199;48.832;9.182;2023-07-13T07:27:40;4.73;;;1.23;;
18146;SDS011;9199;48.832;9.182;2023-07-13T07:30:07;4.90;;;1.80;;
18146;SDS011;9199;48.832;9.182;2023-07-13T07:32:34;6.45;;;1.33;;
18146;SDS011;9199;48.832;9.182;2023-07-13T07:35:01;5.93;;;1.40;;
18146;SDS011;9199;48.832;9.182;2023-07-13T07:37:29;6.97;;;1.38;;
18146;SDS011;9199;48.832;9.182;2023-07-13T07:39:56;5.50;;;1.10;;
18146;SDS011;9199;48.832;9.182;2023-07-13T07:42:24;5.13;;;1.08;;
18146;SDS011;9199;48.832;9.182;2023-07-13T07:44:50;2.72;;;1.00;;
18146;SDS011;9199;48.832;9.182;2023-07-13T07:47:17;3.15;;;0.90;;
18146;SDS011;9199;48.832;9.182;2023-07-13T07:49:44;4.07;;;1.00;;
18146;SDS011;9199;48.832;9.182;2023-07-13T07:52:10;3.53;;;0.83;;
18146;SDS011;9199;48.832;9.182;2023-07-13T07:54:39;4.53;;;1.15;;
18146;SDS011;9199;48.832;9.182;2023-07-13T07:57:06;2.95;;;1.08;;
18146;SDS011;9199;48.832;9.182;2023-07-13T07:59:33;3.83;;;1.10;;
18146;SDS011;9199;48.832;9.182;2023-07-13T08:02:00;11.57;;;1.63;;
18146;SDS011;9199;48.832;9.182;2023-07-13T08:04:27;3.50;;;0.80;;
18146;SDS011;9199;48.832;9.182;2023-07-13T08:06:54;3.55;;;0.90;;
18146;SDS011;9199;48.832;9.182;2023-07-13T08:09:22;3.33;;;1.00;;
18146;SDS011;9199;48.832;9.182;2023-07-13T08:11:50;3.78;;;0.80;;
18146;SDS011;9199;48.832;9.182;2023-07-13T08:14:17;6.93;;;1.05;;
18146;SDS011;9199;48.832;9.182;2023-07-13T08:16:44;4.27;;;1.20;;
18146;SDS011;9199;48.832;9.182;2023-07-13T08:19:10;4.13;;;0.90;;
18146;SDS011;9199;48.832;9.182;2023-07-13T08:21:37;3.13;;;1.13;;
18146;SDS011;9199;48.832;9.182;2023-07-13T08:24:04;5.70;;;1.20;;
18146;SDS011;9199;48.832;9.182;2023-07-13T08:26:31;4.90;;;1.38;;
18146;SDS011;9199;48.832;9.182;2023-07-13T08:28:59;4.10;;;1.20;;
18146;SDS011;9199;48.832;9.182;2023-07-13T08:31:26;3.00;;;1.30;;
18146;SDS011;9199;48.832;9.182;2023-07-13T08:33:53;3.03;;;1.10;;
18146;SDS011;9199;48.832;9.182;2023-07-13T08:36:19;5.50;;;1.30;;
18146;SDS011;9199;48.832;9.182;2023-07-13T08:38:46;4.38;;;1.13;;
18146;SDS011;9199;48.832;9.182;2023-07-13T08:41:13;3.13;;;1.07;;
18146;SDS011;9199;48.832;9.182;2023-07-13T08:43:42;3.75;;;1.13;;
18146;SDS011;9199;48.832;9.182;2023-07-13T08:46:15;4.85;;;1.52;;
18146;SDS011;9199;48.832;9.182;2023-07-13T08:48:46;6.30;;;1.50;;
18146;SDS011;9199;48.832;9.182;2023-07-13T08:51:21;5.40;;;1.38;;
18146;SDS011;9199;48.832;9.182;2023-07-13T08:53:57;4.53;;;1.20;;
18146;SDS011;9199;48.832;9.182;2023-07-13T08:56:27;3.47;;;1.00;;
18146;SDS011;9199;48.832;9.182;2023-07-13T08:58:55;4.93;;;1.35;;
18146;SDS011;9199;48.832;9.182;2023-07-13T09:01:28;3.45;;;1.02;;
18146;SDS011;9199;48.832;9.182;2023-07-13T09:04:01;4.68;;;1.20;;
18146;SDS011;9199;48.832;9.182;2023-07-13T09:06:31;6.30;;;1.00;;
18146;SDS011;9199;48.832;9.182;2023-07-13T09:09:07;4.53;;;1.58;;
18146;SDS011;9199;48.832;9.182;2023-07-13T09:11:45;3.85;;;1.10;;
18146;SDS011;9199;48.832;9.182;2023-07-13T09:17:12;5.47;;;1.30;;
18146;SDS011;9199;48.832;9.182;2023-07-13T09:19:43;4.07;;;1.17;;
18146;SDS011;9199;48.832;9.182;2023-07-13T09:22:17;6.05;;;1.30;;
18146;SDS011;9199;48.832;9.182;2023-07-13T09:24:50;5.20;;;1.20;;
18146;SDS011;9199;48.832;9.182;2023-07-13T09:27:24;6.07;;;1.27;;
18146;SDS011;9199;48.832;9.182;2023-07-13T09:29:57;2.85;;;1.17;;
18146;SDS011;9199;48.832;9.182;2023-07-13T09:32:31;4.33;;;1.13;;
18146;SDS011;9199;48.832;9.182;2023-07-13T09:34:59;4.55;;;1.30;;
18146;SDS011;9199;48.832;9.182;2023-07-13T09:37:28;6.15;;;1.30;;
18146;SDS011;9199;48.832;9.182;2023-07-13T09:39:56;7.63;;;1.30;;
18146;SDS011;9199;48.832;9.182;2023-07-13T09:42:25;4.97;;;1.17;;
18146;SDS011;9199;48.832;9.182;2023-07-13T09:44:54;5.43;;;1.30;;
18146;SDS011;9199;48.832;9.182;2023-07-13T09:47:22;7.65;;;1.20;;
18146;SDS011;9199;48.832;9.182;2023-07-13T09:49:56;4.88;;;1.10;;
18146;SDS011;9199;48.832;9.182;2023-07-13T09:52:24;5.22;;;1.10;;
18146;SDS011;9199;48.832;9.182;2023-07-13T09:54:53;11.07;;;2.28;;
18146;SDS011;9199;48.832;9.182;2023-07-13T09:57:24;7.60;;;1.60;;
18146;SDS011;9199;48.832;9.182;2023-07-13T09:59:53;4.28;;;1.48;;
18146;SDS011;9199;48.832;9.182;2023-07-13T10:02:25;7.85;;;1.60;;
18146;SDS011;9199;48.832;9.182;2023-07-13T10:04:58;4.53;;;1.27;;
18146;SDS011;9199;48.832;9.182;2023-07-13T10:07:28;4.70;;;1.25;;
18146;SDS011;9199;48.832;9.182;2023-07-13T10:09:56;5.90;;;1.23;;
18146;SDS011;9199;48.832;9.182;2023-07-13T10:12:26;3.92;;;1.20;;
18146;SDS011;9199;48.832;9.182;2023-07-13T10:14:54;5.53;;;1.33;;
18146;SDS011;9199;48.832;9.182;2023-07-13T10:17:25;3.85;;;1.30;;
18146;SDS011;9199;48.832;9.182;2023-07-13T10:19:57;4.47;;;1.17;;
18146;SDS011;9199;48.832;9.182;2023-07-13T10:22:31;6.67;;;1.30;;
18146;SDS011;9199;48.832;9.182;2023-07-13T10:25:11;6.18;;;1.40;;
18146;SDS011;9199;48.832;9.182;2023-07-13T10:27:40;6.15;;;1.30;;
18146;SDS011;9199;48.832;9.182;2023-07-13T10:30:09;3.83;;;1.05;;
18146;SDS011;9199;48.832;9.182;2023-07-13T10:32:41;5.10;;;1.40;;
18146;SDS011;9199;48.832;9.182;2023-07-13T10:35:10;5.23;;;1.30;;
18146;SDS011;9199;48.832;9.182;2023-07-13T10:37:42;4.10;;;1.27;;
18146;SDS011;9199;48.832;9.182;2023-07-13T10:40:14;6.10;;;1.30;;
18146;SDS011;9199;48.832;9.182;2023-07-13T10:42:46;3.25;;;1.15;;
18146;SDS011;9199;48.832;9.182;2023-07-13T10:45:16;6.10;;;1.27;;
18146;SDS011;9199;48.832;9.182;2023-07-13T10:47:45;4.43;;;1.20;;
18146;SDS011;9199;48.832;9.182;2023-07-13T10:50:15;7.32;;;1.38;;
18146;SDS011;9199;48.832;9.182;2023-07-13T10:52:47;5.13;;;1.20;;
18146;SDS011;9199;48.832;9.182;2023-07-13T10:58:02;5.88;;;1.20;;
18146;SDS011;9199;48.832;9.182;2023-07-13T11:00:42;4.17;;;1.33;;
18146;SDS011;9199;48.832;9.182;2023-07-13T11:03:13;4.45;;;1.20;;
18146;SDS011;9199;48.832;9.182;2023-07-13T11:05:43;4.68;;;1.30;;
18146;SDS011;9199;48.832;9.182;2023-07-13T11:08:16;4.95;;;1.67;;
18146;SDS011;9199;48.832;9.182;2023-07-13T11:10:49;4.63;;;1.30;;
18146;SDS011;9199;48.832;9.182;2023-07-13T11:13:36;5.80;;;1.20;;
18146;SDS011;9199;48.832;9.182;2023-07-13T11:16:34;5.35;;;1.20;;
18146;SDS011;9199;48.832;9.182;2023-07-13T11:19:24;5.35;;;1.40;;
18146;SDS011;9199;48.832;9.182;2023-07-13T11:22:11;7.57;;;1.13;;
18146;SDS011;9199;48.832;9.182;2023-07-13T11:24:48;4.82;;;1.30;;
18146;SDS011;9199;48.832;9.182;2023-07-13T11:27:34;4.87;;;1.13;;
18146;SDS011;9199;48.832;9.182;2023-07-13T11:33:02;6.47;;;1.50;;
18146;SDS011;9199;48.832;9.182;2023-07-13T11:35:39;6.43;;;1.23;;
18146;SDS011;9199;48.832;9.182;2023-07-13T11:38:13;8.90;;;1.58;;
18146;SDS011;9199;48.832;9.182;2023-07-13T11:40:43;4.80;;;1.20;;
18146;SDS011;9199;48.832;9.182;2023-07-13T11:43:12;3.65;;;1.00;;
18146;SDS011;9199;48.832;9.182;2023-07-13T11:45:40;4.00;;;1.50;;
18146;SDS011;9199;48.832;9.182;2023-07-13T11:48:17;3.90;;;1.20;;
18146;SDS011;9199;48.832;9.182;2023-07-13T11:50:49;4.75;;;1.40;;
18146;SDS011;9199;48.832;9.182;2023-07-13T11:53:19;5.83;;;1.23;;
18146;SDS011;9199;48.832;9.182;2023-07-13T11:55:46;5.95;;;1.40;;
18146;SDS011;9199;48.832;9.182;2023-07-13T11:58:14;5.40;;;1.20;;
18146;SDS011;9199;48.832;9.182;2023-07-13T12:00:46;3.92;;;1.20;;
18146;SDS011;9199;48.832;9.182;2023-07-13T12:03:14;5.03;;;1.10;;
18146;SDS011;9199;48.832;9.182;2023-07-13T12:05:56;5.13;;;1.27;;
18146;SDS011;9199;48.832;9.182;2023-07-13T12:08:26;5.03;;;1.20;;
18146;SDS011;9199;48.832;9.182;2023-07-13T12:10:58;4.00;;;1.25;;
18146;SDS011;9199;48.832;9.182;2023-07-13T12:13:26;6.53;;;1.38;;
18146;SDS011;9199;48.832;9.182;2023-07-13T12:15:55;4.45;;;1.48;;
18146;SDS011;9199;48.832;9.182;2023-07-13T12:18:23;4.20;;;1.30;;
18146;SDS011;9199;48.832;9.182;2023-07-13T12:20:59;5.45;;;1.20;;
18146;SDS011;9199;48.832;9.182;2023-07-13T12:23:28;3.92;;;1.10;;
18146;SDS011;9199;48.832;9.182;2023-07-13T12:25:56;3.88;;;1.30;;
18146;SDS011;9199;48.832;9.182;2023-07-13T12:28:30;4.57;;;1.38;;
18146;SDS011;9199;48.832;9.182;2023-07-13T12:30:58;4.60;;;1.00;;
18146;SDS011;9199;48.832;9.182;2023-07-13T12:33:27;5.50;;;1.50;;
18146;SDS011;9199;48.832;9.182;2023-07-13T12:35:55;5.68;;;1.30;;
18146;SDS011;9199;48.832;9.182;2023-07-13T12:38:24;4.22;;;1.30;;
18146;SDS011;9199;48.832;9.182;2023-07-13T12:40:52;3.50;;;1.20;;
18146;SDS011;9199;48.832;9.182;2023-07-13T12:43:20;4.77;;;1.40;;
18146;SDS011;9199;48.832;9.182;2023-07-13T12:45:54;5.10;;;1.48;;
18146;SDS011;9199;48.832;9.182;2023-07-13T12:48:23;3.22;;;1.30;;
18146;SDS011;9199;48.832;9.182;2023-07-13T12:50:50;10.75;;;2.53;;
18146;SDS011;9199;48.832;9.182;2023-07-13T12:53:18;3.88;;;1.33;;
18146;SDS011;9199;48.832;9.182;2023-07-13T12:55:48;4.90;;;1.40;;
18146;SDS011;9199;48.832;9.182;2023-07-13T12:58:22;3.63;;;1.20;;
18146;SDS011;9199;48.832;9.182;2023-07-13T13:00:53;5.05;;;1.40;;
18146;SDS011;9199;48.832;9.182;2023-07-13T13:03:23;7.22;;;1.77;;
18146;SDS011;9199;48.832;9.182;2023-07-13T13:05:58;5.88;;;1.65;;
18146;SDS011;9199;48.832;9.182;2023-07-13T13:08:29;3.80;;;1.40;;
18146;SDS011;9199;48.832;9.182;2023-07-13T13:10:56;4.95;;;1.60;;
18146;SDS011;9199;48.832;9.182;2023-07-13T13:13:24;4.85;;;1.40;;
18146;SDS011;9199;48.832;9.182;2023-07-13T13:15:51;4.85;;;1.33;;
18146;SDS011;9199;48.832;9.182;2023-07-13T13:18:18;4.72;;;1.50;;
18146;SDS011;9199;48.832;9.182;2023-07-13T13:20:46;5.03;;;1.60;;
18146;SDS011;9199;48.832;9.182;2023-07-13T13:23:14;4.90;;;1.42;;
18146;SDS011;9199;48.832;9.182;2023-07-13T13:25:43;5.70;;;1.60;;
18146;SDS011;9199;48.832;9.182;2023-07-13T13:28:14;3.75;;;1.30;;
18146;SDS011;9199;48.832;9.182;2023-07-13T13:30:44;4.13;;;1.42;;
18146;SDS011;9199;48.832;9.182;2023-07-13T13:33:13;5.07;;;1.47;;
18146;SDS011;9199;48.832;9.182;2023-07-13T13:35:40;4.30;;;1.30;;
18146;SDS011;9199;48.832;9.182;2023-07-13T13:38:11;4.43;;;1.45;;
18146;SDS011;9199;48.832;9.182;2023-07-13T13:40:39;3.28;;;1.20;;
18146;SDS011;9199;48.832;9.182;2023-07-13T13:43:16;5.88;;;1.40;;
18146;SDS011;9199;48.832;9.182;2023-07-13T13:45:45;3.90;;;1.20;;
18146;SDS011;9199;48.832;9.182;2023-07-13T13:48:16;4.55;;;1.30;;
18146;SDS011;9199;48.832;9.182;2023-07-13T13:50:44;3.88;;;1.20;;
18146;SDS011;9199;48.832;9.182;2023-07-13T13:53:12;4.68;;;1.60;;
18146;SDS011;9199;48.832;9.182;2023-07-13T13:55:40;3.75;;;1.20;;
18146;SDS011;9199;48.832;9.182;2023-07-13T13:58:08;5.07;;;1.43;;
18146;SDS011;9199;48.832;9.182;2023-07-13T14:00:35;6.05;;;1.20;;
18146;SDS011;9199;48.832;9.182;2023-07-13T14:03:04;5.18;;;1.30;;
18146;SDS011;9199;48.832;9.182;2023-07-13T14:05:32;7.13;;;1.48;;
18146;SDS011;9199;48.832;9.182;2023-07-13T14:07:59;4.75;;;1.20;;
18146;SDS011;9199;48.832;9.182;2023-07-13T14:10:26;6.87;;;1.63;;
18146;SDS011;9199;48.832;9.182;2023-07-13T14:12:53;7.05;;;1.75;;
18146;SDS011;9199;48.832;9.182;2023-07-13T14:15:22;5.65;;;1.40;;
18146;SDS011;9199;48.832;9.182;2023-07-13T14:17:50;5.47;;;1.20;;
18146;SDS011;9199;48.832;9.182;2023-07-13T14:20:19;4.13;;;1.60;;
18146;SDS011;9199;48.832;9.182;2023-07-13T14:22:49;5.23;;;1.50;;
18146;SDS011;9199;48.832;9.182;2023-07-13T14:25:16;5.68;;;1.52;;
18146;SDS011;9199;48.832;9.182;2023-07-13T14:27:45;5.22;;;1.60;;
18146;SDS011;9199;48.832;9.182;2023-07-13T14:30:14;3.08;;;1.30;;
18146;SDS011;9199;48.832;9.182;2023-07-13T14:32:43;5.30;;;1.63;;
18146;SDS011;9199;48.832;9.182;2023-07-13T14:35:10;5.77;;;1.30;;
18146;SDS011;9199;48.832;9.182;2023-07-13T14:37:39;4.18;;;1.48;;
18146;SDS011;9199;48.832;9.182;2023-07-13T14:40:12;5.30;;;1.60;;
18146;SDS011;9199;48.832;9.182;2023-07-13T14:42:39;5.38;;;1.45;;
18146;SDS011;9199;48.832;9.182;2023-07-13T14:45:12;3.80;;;1.60;;
18146;SDS011;9199;48.832;9.182;2023-07-13T14:47:39;4.23;;;1.33;;
18146;SDS011;9199;48.832;9.182;2023-07-13T14:50:11;5.97;;;1.40;;
18146;SDS011;9199;48.832;9.182;2023-07-13T14:52:42;4.55;;;1.30;;
18146;SDS011;9199;48.832;9.182;2023-07-13T14:55:10;5.55;;;1.60;;
18146;SDS011;9199;48.832;9.182;2023-07-13T14:57:38;3.75;;;1.50;;
18146;SDS011;9199;48.832;9.182;2023-07-13T15:00:05;4.47;;;1.40;;
18146;SDS011;9199;48.832;9.182;2023-07-13T15:02:40;4.80;;;1.27;;
18146;SDS011;9199;48.832;9.182;2023-07-13T15:05:15;3.65;;;1.50;;
18146;SDS011;9199;48.832;9.182;2023-07-13T15:07:45;3.97;;;1.42;;
18146;SDS011;9199;48.832;9.182;2023-07-13T15:10:13;5.05;;;1.52;;
18146;SDS011;9199;48.832;9.182;2023-07-13T15:12:40;5.57;;;1.40;;
18146;SDS011;9199;48.832;9.182;2023-07-13T15:15:07;4.70;;;1.50;;
18146;SDS011;9199;48.832;9.182;2023-07-13T15:17:36;4.70;;;1.70;;